Observations for NEWCASTLE, United Kingdom (EGNT)

EGNT 220520Z 00000KT 4000 BR BKN002 14/14 Q1019 
EGNT 220450Z 00000KT 5000 BR BKN002 14/13 Q1019 
EGNT 220420Z 00000KT 6000 FEW003 SCT020 14/13 Q1019 
EGNT 220350Z 34001KT 9999 SCT028 14/13 Q1019
EGNT 220320Z 00000KT 9999 FEW030 13/13 Q1019
EGNT 220220Z 34002KT 9000 -RA FEW028 13/13 Q1019
EGNT 220150Z 00000KT 9000 -RA FEW028 14/13 Q1019
EGNT 220120Z 00000KT 9000 -RA FEW028 14/13 Q1019
EGNT 220050Z 00000KT 9999 -RA FEW028 14/13 Q1019
EGNT 212350Z 33002KT 9999 -RA FEW028 14/13 Q1019
EGNT 212320Z 34001KT 9999 FEW025 14/13 Q1020
EGNT 212250Z 16001KT 9999 FEW025 15/14 Q1020
EGNT 212220Z 16001KT 9999 FEW025 15/14 Q1020
EGNT 212150Z 16001KT 9999 -RA FEW025 15/14 Q1020
EGNT 212120Z 16002KT 9999 -RA FEW025 15/14 Q1020
EGNT 212050Z 00000KT 9999 FEW035 15/14 Q1020
EGNT 212020Z 15002KT 9999 FEW035 15/13 Q1020
EGNT 211950Z 12002KT 9999 FEW035 15/13 Q1019
EGNT 211920Z 11002KT 9999 FEW035 15/13 Q1019
EGNT 211850Z 10003KT 9999 -RA SCT036 15/13 Q1019
EGNT 211820Z 10004KT 9999 VCSH SCT038 16/13 Q1019   
EGNT 211750Z VRB03KT 9999 -SHRA FEW037 16/13 Q1019  
EGNT 211720Z 11004KT 070V170 9999 -SHRA FEW048 17/12 Q1019  
EGNT 211650Z 12004KT 080V180 CAVOK 17/12 Q1019  
EGNT 211620Z 13005KT 070V170 CAVOK 18/13 Q1019  
EGNT 211550Z 13005KT 070V180 CAVOK 18/12 Q1019  
EGNT 211520Z 11006KT 080V170 CAVOK 18/12 Q1019  
EGNT 211450Z 10006KT 070V140 CAVOK 18/12 Q1019  
EGNT 211420Z 13006KT 080V170 CAVOK 18/12 Q1019  
EGNT 211350Z 16005KT 060V230 CAVOK 20/12 Q1020  
EGNT 211320Z 16005KT 090V200 CAVOK 20/11 Q1020  
EGNT 211250Z 17007KT 110V230 CAVOK 20/11 Q1020  
EGNT 211220Z 18007KT 140V230 CAVOK 20/10 Q1020  
EGNT 211150Z 17006KT 140V220 CAVOK 19/11 Q1020  
EGNT 211120Z 19005KT 140V240 CAVOK 19/11 Q1021  
EGNT 211050Z 16005KT 070V210 CAVOK 18/11 Q1021  
EGNT 211020Z 17006KT 120V230 CAVOK 18/10 Q1021  
EGNT 210950Z 15004KT 060V190 CAVOK 17/11 Q1021  
EGNT 210920Z VRB03KT CAVOK 16/11 Q1021  
EGNT 210850Z VRB03KT CAVOK 15/13 Q1021  
EGNT 210820Z VRB01KT CAVOK 13/12 Q1021  
EGNT 210750Z 00000KT CAVOK 12/12 Q1022  
EGNT 210720Z 25001KT CAVOK 10/09 Q1022  
EGNT 210650Z 00000KT CAVOK 09/08 Q1022  
EGNT 210620Z 20002KT CAVOK 08/07 Q1021  
EGNT 210550Z 23002KT 9999 VCFG NSC 06/06 Q1021  
EGNT 210520Z 00000KT 9999 R25/0650 MIFG NSC 05/05 Q1021 
EGNT 210450Z 00000KT 9999 R25/0175 MIFG FEW047 05/05 Q1021